sensor_id;sensor_type;location;lat;lon;timestamp;temperature;humidity
65034;DHT22;51601;51.356;12.458;2023-07-20T00:02:09;17.10;99.90
65034;DHT22;51601;51.356;12.458;2023-07-20T00:06:27;17.00;99.90
65034;DHT22;51601;51.356;12.458;2023-07-20T00:10:47;17.10;99.90
65034;DHT22;51601;51.356;12.458;2023-07-20T00:15:06;16.90;99.90
65034;DHT22;51601;51.356;12.458;2023-07-20T00:19:25;16.90;99.90
65034;DHT22;51601;51.356;12.458;2023-07-20T00:23:45;16.90;99.90
65034;DHT22;51601;51.356;12.458;2023-07-20T00:28:07;17.00;99.90
65034;DHT22;51601;51.356;12.458;2023-07-20T00:32:27;17.00;99.90
65034;DHT22;51601;51.356;12.458;2023-07-20T00:36:45;17.00;99.90
65034;DHT22;51601;51.356;12.458;2023-07-20T00:41:06;16.90;99.90
65034;DHT22;51601;51.356;12.458;2023-07-20T00:45:26;16.90;99.90
65034;DHT22;51601;51.356;12.458;2023-07-20T00:49:49;16.90;99.90
65034;DHT22;51601;51.356;12.458;2023-07-20T00:54:10;17.00;99.90
65034;DHT22;51601;51.356;12.458;2023-07-20T00:58:28;17.00;99.90
65034;DHT22;51601;51.356;12.458;2023-07-20T01:02:47;17.00;99.90
65034;DHT22;51601;51.356;12.458;2023-07-20T01:07:12;17.00;99.90
65034;DHT22;51601;51.356;12.458;2023-07-20T01:11:38;17.10;99.90
65034;DHT22;51601;51.356;12.458;2023-07-20T01:15:57;17.10;99.90
65034;DHT22;51601;51.356;12.458;2023-07-20T01:20:20;17.10;99.90
65034;DHT22;51601;51.356;12.458;2023-07-20T01:29:55;17.20;99.90
65034;DHT22;51601;51.356;12.458;2023-07-20T01:34:18;17.20;99.90
65034;DHT22;51601;51.356;12.458;2023-07-20T01:38:37;17.20;99.90
65034;DHT22;51601;51.356;12.458;2023-07-20T01:42:54;17.20;99.90
65034;DHT22;51601;51.356;12.458;2023-07-20T01:47:12;17.20;99.90
65034;DHT22;51601;51.356;12.458;2023-07-20T01:51:32;17.20;99.90
65034;DHT22;51601;51.356;12.458;2023-07-20T01:55:53;17.10;99.90
65034;DHT22;51601;51.356;12.458;2023-07-20T02:00:13;17.00;99.90
65034;DHT22;51601;51.356;12.458;2023-07-20T02:04:31;17.00;99.90
65034;DHT22;51601;51.356;12.458;2023-07-20T02:08:50;16.90;99.90
65034;DHT22;51601;51.356;12.458;2023-07-20T02:13:07;16.90;99.90
65034;DHT22;51601;51.356;12.458;2023-07-20T02:17:25;16.80;99.90
65034;DHT22;51601;51.356;12.458;2023-07-20T02:21:43;16.80;99.90
65034;DHT22;51601;51.356;12.458;2023-07-20T02:26:02;16.80;99.90
65034;DHT22;51601;51.356;12.458;2023-07-20T02:30:23;16.70;99.90
65034;DHT22;51601;51.356;12.458;2023-07-20T02:34:40;16.60;99.90
65034;DHT22;51601;51.356;12.458;2023-07-20T02:38:58;16.60;99.90
65034;DHT22;51601;51.356;12.458;2023-07-20T02:43:18;16.70;99.90
65034;DHT22;51601;51.356;12.458;2023-07-20T02:47:34;16.70;99.90
65034;DHT22;51601;51.356;12.458;2023-07-20T02:51:53;16.70;99.90
65034;DHT22;51601;51.356;12.458;2023-07-20T02:56:11;16.70;99.90
65034;DHT22;51601;51.356;12.458;2023-07-20T03:00:33;16.70;99.90
65034;DHT22;51601;51.356;12.458;2023-07-20T03:04:53;16.80;99.90
65034;DHT22;51601;51.356;12.458;2023-07-20T03:09:11;16.80;99.90
65034;DHT22;51601;51.356;12.458;2023-07-20T03:13:29;16.80;99.90
65034;DHT22;51601;51.356;12.458;2023-07-20T03:17:48;16.80;99.90
65034;DHT22;51601;51.356;12.458;2023-07-20T03:22:08;16.80;99.90
65034;DHT22;51601;51.356;12.458;2023-07-20T03:26:26;16.80;99.90
65034;DHT22;51601;51.356;12.458;2023-07-20T03:30:44;16.80;99.90
65034;DHT22;51601;51.356;12.458;2023-07-20T03:35:05;16.70;99.90
65034;DHT22;51601;51.356;12.458;2023-07-20T03:39:23;16.70;99.90
65034;DHT22;51601;51.356;12.458;2023-07-20T03:43:42;16.70;99.90
65034;DHT22;51601;51.356;12.458;2023-07-20T03:48:00;16.70;99.90
65034;DHT22;51601;51.356;12.458;2023-07-20T03:52:19;16.70;99.90
65034;DHT22;51601;51.356;12.458;2023-07-20T03:56:36;16.70;99.90
65034;DHT22;51601;51.356;12.458;2023-07-20T04:00:54;16.70;99.90
65034;DHT22;51601;51.356;12.458;2023-07-20T04:05:12;16.70;99.90
65034;DHT22;51601;51.356;12.458;2023-07-20T04:09:32;16.80;99.90
65034;DHT22;51601;51.356;12.458;2023-07-20T04:13:51;16.70;99.90
65034;DHT22;51601;51.356;12.458;2023-07-20T04:18:09;16.70;99.90
65034;DHT22;51601;51.356;12.458;2023-07-20T04:22:28;16.80;99.90
65034;DHT22;51601;51.356;12.458;2023-07-20T04:26:47;16.80;99.90
65034;DHT22;51601;51.356;12.458;2023-07-20T04:31:10;16.80;99.90
65034;DHT22;51601;51.356;12.458;2023-07-20T04:35:48;16.80;99.90
65034;DHT22;51601;51.356;12.458;2023-07-20T04:40:11;16.80;99.90
65034;DHT22;51601;51.356;12.458;2023-07-20T04:44:29;16.80;99.90
65034;DHT22;51601;51.356;12.458;2023-07-20T04:48:46;16.90;99.90
65034;DHT22;51601;51.356;12.458;2023-07-20T04:53:04;16.90;99.90
65034;DHT22;51601;51.356;12.458;2023-07-20T04:57:23;16.90;99.90
65034;DHT22;51601;51.356;12.458;2023-07-20T05:01:42;16.90;99.90
65034;DHT22;51601;51.356;12.458;2023-07-20T05:06:02;16.90;99.90
65034;DHT22;51601;51.356;12.458;2023-07-20T05:10:22;16.90;99.90
65034;DHT22;51601;51.356;12.458;2023-07-20T05:14:44;17.00;99.90
65034;DHT22;51601;51.356;12.458;2023-07-20T05:19:03;17.00;99.90
65034;DHT22;51601;51.356;12.458;2023-07-20T05:23:20;17.10;99.90
65034;DHT22;51601;51.356;12.458;2023-07-20T05:27:39;17.20;99.90
65034;DHT22;51601;51.356;12.458;2023-07-20T05:31:56;17.20;99.90
65034;DHT22;51601;51.356;12.458;2023-07-20T05:36:16;17.30;99.90
65034;DHT22;51601;51.356;12.458;2023-07-20T05:40:37;17.40;99.90
65034;DHT22;51601;51.356;12.458;2023-07-20T05:44:56;17.50;99.90
65034;DHT22;51601;51.356;12.458;2023-07-20T05:49:14;17.60;99.90
65034;DHT22;51601;51.356;12.458;2023-07-20T05:53:35;17.80;99.90
65034;DHT22;51601;51.356;12.458;2023-07-20T05:57:53;17.90;99.90
65034;DHT22;51601;51.356;12.458;2023-07-20T06:02:11;18.00;99.90
65034;DHT22;51601;51.356;12.458;2023-07-20T06:06:29;18.00;99.90
65034;DHT22;51601;51.356;12.458;2023-07-20T06:10:51;18.20;99.90
65034;DHT22;51601;51.356;12.458;2023-07-20T06:15:24;18.60;99.90
65034;DHT22;51601;51.356;12.458;2023-07-20T06:19:42;19.10;99.90
65034;DHT22;51601;51.356;12.458;2023-07-20T06:24:00;19.80;99.90
65034;DHT22;51601;51.356;12.458;2023-07-20T06:28:20;20.60;99.90
65034;DHT22;51601;51.356;12.458;2023-07-20T06:32:36;21.80;99.90
65034;DHT22;51601;51.356;12.458;2023-07-20T06:36:54;22.90;96.80
65034;DHT22;51601;51.356;12.458;2023-07-20T06:41:12;23.70;90.80
65034;DHT22;51601;51.356;12.458;2023-07-20T06:45:35;24.20;85.40
65034;DHT22;51601;51.356;12.458;2023-07-20T06:49:52;24.60;77.30
65034;DHT22;51601;51.356;12.458;2023-07-20T06:54:10;24.70;70.80
65034;DHT22;51601;51.356;12.458;2023-07-20T06:58:28;24.50;68.00
65034;DHT22;51601;51.356;12.458;2023-07-20T07:02:47;24.30;68.80
65034;DHT22;51601;51.356;12.458;2023-07-20T07:07:07;24.40;67.80
65034;DHT22;51601;51.356;12.458;2023-07-20T07:11:25;24.30;65.20
65034;DHT22;51601;51.356;12.458;2023-07-20T07:15:43;24.20;64.30
65034;DHT22;51601;51.356;12.458;2023-07-20T07:20:03;24.40;65.20
65034;DHT22;51601;51.356;12.458;2023-07-20T07:24:25;25.10;65.00
65034;DHT22;51601;51.356;12.458;2023-07-20T07:28:46;25.90;62.50
65034;DHT22;51601;51.356;12.458;2023-07-20T07:33:04;26.10;60.00
65034;DHT22;51601;51.356;12.458;2023-07-20T07:37:24;26.10;58.30
65034;DHT22;51601;51.356;12.458;2023-07-20T07:41:44;25.80;57.60
65034;DHT22;51601;51.356;12.458;2023-07-20T07:46:02;25.40;57.10
65034;DHT22;51601;51.356;12.458;2023-07-20T07:50:20;24.90;57.10
65034;DHT22;51601;51.356;12.458;2023-07-20T07:54:39;24.30;57.80
65034;DHT22;51601;51.356;12.458;2023-07-20T07:58:56;23.80;58.90
65034;DHT22;51601;51.356;12.458;2023-07-20T08:03:14;23.30;59.90
65034;DHT22;51601;51.356;12.458;2023-07-20T08:07:32;23.00;61.00
65034;DHT22;51601;51.356;12.458;2023-07-20T08:11:51;22.90;62.40
65034;DHT22;51601;51.356;12.458;2023-07-20T08:16:08;23.20;63.80
65034;DHT22;51601;51.356;12.458;2023-07-20T08:20:26;23.70;62.50
65034;DHT22;51601;51.356;12.458;2023-07-20T08:24:44;23.90;60.90
65034;DHT22;51601;51.356;12.458;2023-07-20T08:29:04;23.90;60.20
65034;DHT22;51601;51.356;12.458;2023-07-20T08:33:20;23.80;60.20
65034;DHT22;51601;51.356;12.458;2023-07-20T08:37:38;23.60;60.50
65034;DHT22;51601;51.356;12.458;2023-07-20T08:41:58;23.60;60.60
65034;DHT22;51601;51.356;12.458;2023-07-20T08:46:23;23.70;61.50
65034;DHT22;51601;51.356;12.458;2023-07-20T08:50:43;24.00;61.20
65034;DHT22;51601;51.356;12.458;2023-07-20T08:55:00;24.20;60.00
65034;DHT22;51601;51.356;12.458;2023-07-20T08:59:23;24.50;60.50
65034;DHT22;51601;51.356;12.458;2023-07-20T09:03:45;25.30;60.50
65034;DHT22;51601;51.356;12.458;2023-07-20T09:08:03;26.20;59.40
65034;DHT22;51601;51.356;12.458;2023-07-20T09:12:21;27.10;56.90
65034;DHT22;51601;51.356;12.458;2023-07-20T09:16:50;27.50;53.70
65034;DHT22;51601;51.356;12.458;2023-07-20T09:21:08;27.40;52.30
65034;DHT22;51601;51.356;12.458;2023-07-20T09:25:27;27.10;52.10
65034;DHT22;51601;51.356;12.458;2023-07-20T09:29:49;26.80;52.20
65034;DHT22;51601;51.356;12.458;2023-07-20T09:34:07;26.50;52.20
65034;DHT22;51601;51.356;12.458;2023-07-20T09:38:26;26.00;52.00
65034;DHT22;51601;51.356;12.458;2023-07-20T09:43:08;25.60;52.30
65034;DHT22;51601;51.356;12.458;2023-07-20T09:47:29;25.10;53.00
65034;DHT22;51601;51.356;12.458;2023-07-20T09:51:47;24.70;54.20
65034;DHT22;51601;51.356;12.458;2023-07-20T09:56:07;24.30;56.10
65034;DHT22;51601;51.356;12.458;2023-07-20T10:00:26;23.90;58.40
65034;DHT22;51601;51.356;12.458;2023-07-20T10:04:49;23.30;60.10
65034;DHT22;51601;51.356;12.458;2023-07-20T10:09:10;22.80;65.00
65034;DHT22;51601;51.356;12.458;2023-07-20T10:13:32;22.10;70.40
65034;DHT22;51601;51.356;12.458;2023-07-20T10:18:02;21.60;76.90
65034;DHT22;51601;51.356;12.458;2023-07-20T10:22:25;21.20;84.30
65034;DHT22;51601;51.356;12.458;2023-07-20T10:26:48;20.90;90.80
65034;DHT22;51601;51.356;12.458;2023-07-20T10:31:12;20.90;92.80
65034;DHT22;51601;51.356;12.458;2023-07-20T10:35:51;20.90;93.10
65034;DHT22;51601;51.356;12.458;2023-07-20T10:40:27;21.10;93.30
65034;DHT22;51601;51.356;12.458;2023-07-20T10:44:46;21.40;92.70
65034;DHT22;51601;51.356;12.458;2023-07-20T10:49:07;21.60;92.00
65034;DHT22;51601;51.356;12.458;2023-07-20T10:53:26;21.80;90.50
65034;DHT22;51601;51.356;12.458;2023-07-20T10:58:09;21.90;86.70
65034;DHT22;51601;51.356;12.458;2023-07-20T11:02:45;22.10;82.20
65034;DHT22;51601;51.356;12.458;2023-07-20T11:07:11;22.30;79.60
65034;DHT22;51601;51.356;12.458;2023-07-20T11:11:35;22.40;79.00
65034;DHT22;51601;51.356;12.458;2023-07-20T11:16:04;22.70;78.40
65034;DHT22;51601;51.356;12.458;2023-07-20T11:20:25;22.90;77.90
65034;DHT22;51601;51.356;12.458;2023-07-20T11:24:45;23.30;77.00
65034;DHT22;51601;51.356;12.458;2023-07-20T11:29:07;23.70;73.40
65034;DHT22;51601;51.356;12.458;2023-07-20T11:33:46;24.20;71.10
65034;DHT22;51601;51.356;12.458;2023-07-20T11:38:08;24.50;66.90
65034;DHT22;51601;51.356;12.458;2023-07-20T11:42:34;24.60;64.30
65034;DHT22;51601;51.356;12.458;2023-07-20T11:47:04;24.40;63.70
65034;DHT22;51601;51.356;12.458;2023-07-20T11:51:24;24.20;63.30
65034;DHT22;51601;51.356;12.458;2023-07-20T11:55:48;24.00;63.20
65034;DHT22;51601;51.356;12.458;2023-07-20T12:00:12;23.70;63.50
65034;DHT22;51601;51.356;12.458;2023-07-20T12:04:34;23.70;64.40
65034;DHT22;51601;51.356;12.458;2023-07-20T12:08:55;23.80;64.90
65034;DHT22;51601;51.356;12.458;2023-07-20T12:13:16;23.90;64.70
65034;DHT22;51601;51.356;12.458;2023-07-20T12:17:42;24.10;63.30
65034;DHT22;51601;51.356;12.458;2023-07-20T12:22:01;24.10;62.60
65034;DHT22;51601;51.356;12.458;2023-07-20T12:26:22;24.00;62.00
65034;DHT22;51601;51.356;12.458;2023-07-20T12:30:44;23.80;62.20
65034;DHT22;51601;51.356;12.458;2023-07-20T12:35:06;23.70;63.10
65034;DHT22;51601;51.356;12.458;2023-07-20T12:39:25;23.60;64.00
65034;DHT22;51601;51.356;12.458;2023-07-20T12:43:53;23.70;64.30
65034;DHT22;51601;51.356;12.458;2023-07-20T12:48:14;23.80;63.30
65034;DHT22;51601;51.356;12.458;2023-07-20T12:52:38;24.00;61.90
65034;DHT22;51601;51.356;12.458;2023-07-20T12:57:02;24.10;60.90
65034;DHT22;51601;51.356;12.458;2023-07-20T13:01:26;24.20;59.60
65034;DHT22;51601;51.356;12.458;2023-07-20T13:05:48;24.20;59.30
65034;DHT22;51601;51.356;12.458;2023-07-20T13:10:13;24.10;59.00
65034;DHT22;51601;51.356;12.458;2023-07-20T13:14:33;24.20;59.00
65034;DHT22;51601;51.356;12.458;2023-07-20T13:18:50;24.20;58.50
65034;DHT22;51601;51.356;12.458;2023-07-20T13:23:08;24.10;57.10
65034;DHT22;51601;51.356;12.458;2023-07-20T13:27:28;24.10;57.40
65034;DHT22;51601;51.356;12.458;2023-07-20T13:31:52;24.00;58.10
65034;DHT22;51601;51.356;12.458;2023-07-20T13:36:12;24.00;58.60
65034;DHT22;51601;51.356;12.458;2023-07-20T13:40:31;24.00;58.70
65034;DHT22;51601;51.356;12.458;2023-07-20T13:44:52;24.10;58.50
65034;DHT22;51601;51.356;12.458;2023-07-20T13:49:12;24.20;57.60
65034;DHT22;51601;51.356;12.458;2023-07-20T13:53:39;24.20;56.80
65034;DHT22;51601;51.356;12.458;2023-07-20T13:58:00;24.10;56.80
65034;DHT22;51601;51.356;12.458;2023-07-20T14:02:20;24.10;56.00
65034;DHT22;51601;51.356;12.458;2023-07-20T14:06:40;24.00;55.00
65034;DHT22;51601;51.356;12.458;2023-07-20T14:10:58;23.90;54.70
65034;DHT22;51601;51.356;12.458;2023-07-20T14:15:19;23.80;54.70
65034;DHT22;51601;51.356;12.458;2023-07-20T14:19:38;23.80;54.40
65034;DHT22;51601;51.356;12.458;2023-07-20T14:23:58;23.80;54.40
65034;DHT22;51601;51.356;12.458;2023-07-20T14:28:16;23.80;54.60
65034;DHT22;51601;51.356;12.458;2023-07-20T14:32:34;23.80;54.30
65034;DHT22;51601;51.356;12.458;2023-07-20T14:36:53;23.90;53.70
65034;DHT22;51601;51.356;12.458;2023-07-20T14:41:11;23.80;52.80
65034;DHT22;51601;51.356;12.458;2023-07-20T14:45:28;23.70;52.30
65034;DHT22;51601;51.356;12.458;2023-07-20T14:49:47;23.60;52.40
65034;DHT22;51601;51.356;12.458;2023-07-20T14:54:06;23.50;52.00
65034;DHT22;51601;51.356;12.458;2023-07-20T14:58:23;23.30;51.70
65034;DHT22;51601;51.356;12.458;2023-07-20T15:02:43;23.10;51.80
65034;DHT22;51601;51.356;12.458;2023-07-20T15:07:02;23.00;52.00
65034;DHT22;51601;51.356;12.458;2023-07-20T15:11:21;22.90;52.30
65034;DHT22;51601;51.356;12.458;2023-07-20T15:15:41;22.80;52.00
65034;DHT22;51601;51.356;12.458;2023-07-20T15:19:59;22.70;52.10
65034;DHT22;51601;51.356;12.458;2023-07-20T15:24:17;22.60;52.00
65034;DHT22;51601;51.356;12.458;2023-07-20T15:28:37;22.50;52.00
65034;DHT22;51601;51.356;12.458;2023-07-20T15:32:56;22.40;52.20
65034;DHT22;51601;51.356;12.458;2023-07-20T15:37:17;22.30;52.30
65034;DHT22;51601;51.356;12.458;2023-07-20T15:41:35;22.20;52.70
65034;DHT22;51601;51.356;12.458;2023-07-20T15:46:02;22.10;52.80
65034;DHT22;51601;51.356;12.458;2023-07-20T15:50:24;22.10;52.60
65034;DHT22;51601;51.356;12.458;2023-07-20T15:54:42;22.20;52.60
65034;DHT22;51601;51.356;12.458;2023-07-20T15:59:00;22.30;51.70
65034;DHT22;51601;51.356;12.458;2023-07-20T16:03:19;22.40;50.10
65034;DHT22;51601;51.356;12.458;2023-07-20T16:07:36;22.50;48.40
65034;DHT22;51601;51.356;12.458;2023-07-20T16:11:54;22.60;47.50
65034;DHT22;51601;51.356;12.458;2023-07-20T16:16:12;22.60;47.00
65034;DHT22;51601;51.356;12.458;2023-07-20T16:20:31;22.60;47.00
65034;DHT22;51601;51.356;12.458;2023-07-20T16:24:48;22.60;46.90
65034;DHT22;51601;51.356;12.458;2023-07-20T16:29:06;22.50;46.90
65034;DHT22;51601;51.356;12.458;2023-07-20T16:33:27;22.50;47.30
65034;DHT22;51601;51.356;12.458;2023-07-20T16:37:47;22.40;47.30
65034;DHT22;51601;51.356;12.458;2023-07-20T16:42:25;22.30;47.50
65034;DHT22;51601;51.356;12.458;2023-07-20T16:46:46;22.20;47.70
65034;DHT22;51601;51.356;12.458;2023-07-20T16:51:07;22.20;47.80
65034;DHT22;51601;51.356;12.458;2023-07-20T16:55:27;22.10;47.90
65034;DHT22;51601;51.356;12.458;2023-07-20T16:59:43;22.10;48.00
65034;DHT22;51601;51.356;12.458;2023-07-20T17:04:01;22.00;47.80
65034;DHT22;51601;51.356;12.458;2023-07-20T17:08:19;21.90;48.00
65034;DHT22;51601;51.356;12.458;2023-07-20T17:12:39;21.80;48.10
65034;DHT22;51601;51.356;12.458;2023-07-20T17:16:59;21.80;48.30
65034;DHT22;51601;51.356;12.458;2023-07-20T17:21:17;21.80;48.50
65034;DHT22;51601;51.356;12.458;2023-07-20T17:25:35;21.90;48.70
65034;DHT22;51601;51.356;12.458;2023-07-20T17:29:54;21.90;48.80
65034;DHT22;51601;51.356;12.458;2023-07-20T17:34:14;22.00;48.40
65034;DHT22;51601;51.356;12.458;2023-07-20T17:38:32;22.10;48.00
65034;DHT22;51601;51.356;12.458;2023-07-20T17:42:53;22.10;47.70
65034;DHT22;51601;51.356;12.458;2023-07-20T17:47:15;22.10;47.30
65034;DHT22;51601;51.356;12.458;2023-07-20T17:51:35;22.00;47.10
65034;DHT22;51601;51.356;12.458;2023-07-20T17:55:53;21.90;47.20
65034;DHT22;51601;51.356;12.458;2023-07-20T18:00:12;21.80;47.20
65034;DHT22;51601;51.356;12.458;2023-07-20T18:04:37;21.70;47.20
65034;DHT22;51601;51.356;12.458;2023-07-20T18:08:57;21.50;47.20
65034;DHT22;51601;51.356;12.458;2023-07-20T18:13:15;21.40;47.40
65034;DHT22;51601;51.356;12.458;2023-07-20T18:17:34;21.20;47.70
65034;DHT22;51601;51.356;12.458;2023-07-20T18:21:52;21.10;48.00
65034;DHT22;51601;51.356;12.458;2023-07-20T18:26:09;21.00;48.40
65034;DHT22;51601;51.356;12.458;2023-07-20T18:30:27;20.80;48.50
65034;DHT22;51601;51.356;12.458;2023-07-20T18:34:48;20.70;48.80
65034;DHT22;51601;51.356;12.458;2023-07-20T18:39:08;20.60;49.20
65034;DHT22;51601;51.356;12.458;2023-07-20T18:43:24;20.50;49.50
65034;DHT22;51601;51.356;12.458;2023-07-20T18:47:43;20.40;49.80
65034;DHT22;51601;51.356;12.458;2023-07-20T18:52:00;20.30;50.20
65034;DHT22;51601;51.356;12.458;2023-07-20T18:56:20;20.10;50.40
65034;DHT22;51601;51.356;12.458;2023-07-20T19:00:40;20.10;50.90
65034;DHT22;51601;51.356;12.458;2023-07-20T19:04:58;20.00;51.20
65034;DHT22;51601;51.356;12.458;2023-07-20T19:09:16;19.80;51.60
65034;DHT22;51601;51.356;12.458;2023-07-20T19:13:35;19.70;52.00
65034;DHT22;51601;51.356;12.458;2023-07-20T19:17:52;19.60;52.50
65034;DHT22;51601;51.356;12.458;2023-07-20T19:22:10;19.50;52.80
65034;DHT22;51601;51.356;12.458;2023-07-20T19:26:31;19.40;53.10
65034;DHT22;51601;51.356;12.458;2023-07-20T19:30:50;19.30;53.60
65034;DHT22;51601;51.356;12.458;2023-07-20T19:35:10;19.20;55.40
65034;DHT22;51601;51.356;12.458;2023-07-20T19:39:31;19.10;55.40
65034;DHT22;51601;51.356;12.458;2023-07-20T19:43:49;19.00;55.60
65034;DHT22;51601;51.356;12.458;2023-07-20T19:48:09;18.90;56.00
65034;DHT22;51601;51.356;12.458;2023-07-20T19:52:28;18.90;56.10
65034;DHT22;51601;51.356;12.458;2023-07-20T19:56:47;18.90;56.50
65034;DHT22;51601;51.356;12.458;2023-07-20T20:01:05;18.80;57.00
65034;DHT22;51601;51.356;12.458;2023-07-20T20:05:28;18.80;57.50
65034;DHT22;51601;51.356;12.458;2023-07-20T20:09:47;18.70;57.60
65034;DHT22;51601;51.356;12.458;2023-07-20T20:14:08;18.70;57.90
65034;DHT22;51601;51.356;12.458;2023-07-20T20:18:26;18.60;58.70
65034;DHT22;51601;51.356;12.458;2023-07-20T20:22:46;18.60;59.20
65034;DHT22;51601;51.356;12.458;2023-07-20T20:27:06;18.50;59.00
65034;DHT22;51601;51.356;12.458;2023-07-20T20:31:23;18.50;59.60
65034;DHT22;51601;51.356;12.458;2023-07-20T20:35:41;18.40;60.10
65034;DHT22;51601;51.356;12.458;2023-07-20T20:40:02;18.40;60.10
65034;DHT22;51601;51.356;12.458;2023-07-20T20:44:21;18.20;60.90
65034;DHT22;51601;51.356;12.458;2023-07-20T20:48:42;18.20;61.70
65034;DHT22;51601;51.356;12.458;2023-07-20T20:53:03;18.20;62.40
65034;DHT22;51601;51.356;12.458;2023-07-20T20:57:22;18.20;62.50
65034;DHT22;51601;51.356;12.458;2023-07-20T21:01:39;18.10;62.40
65034;DHT22;51601;51.356;12.458;2023-07-20T21:05:57;18.00;62.60
65034;DHT22;51601;51.356;12.458;2023-07-20T21:10:15;18.00;62.70
65034;DHT22;51601;51.356;12.458;2023-07-20T21:14:34;17.80;63.00
65034;DHT22;51601;51.356;12.458;2023-07-20T21:18:51;17.80;64.10
65034;DHT22;51601;51.356;12.458;2023-07-20T21:23:09;17.80;65.00
65034;DHT22;51601;51.356;12.458;2023-07-20T21:27:27;17.80;65.70
65034;DHT22;51601;51.356;12.458;2023-07-20T21:31:47;17.70;66.10
65034;DHT22;51601;51.356;12.458;2023-07-20T21:36:04;17.70;66.70
65034;DHT22;51601;51.356;12.458;2023-07-20T21:40:22;17.70;66.70
65034;DHT22;51601;51.356;12.458;2023-07-20T21:44:39;17.60;66.90
65034;DHT22;51601;51.356;12.458;2023-07-20T21:48:59;17.60;67.00
65034;DHT22;51601;51.356;12.458;2023-07-20T21:53:16;17.50;67.30
65034;DHT22;51601;51.356;12.458;2023-07-20T21:57:34;17.50;68.40
65034;DHT22;51601;51.356;12.458;2023-07-20T22:01:52;17.50;69.30
65034;DHT22;51601;51.356;12.458;2023-07-20T22:06:17;17.50;69.40
65034;DHT22;51601;51.356;12.458;2023-07-20T22:10:34;17.50;69.60
65034;DHT22;51601;51.356;12.458;2023-07-20T22:14:53;17.40;69.70
65034;DHT22;51601;51.356;12.458;2023-07-20T22:19:10;17.40;70.10
65034;DHT22;51601;51.356;12.458;2023-07-20T22:23:30;17.30;70.10
65034;DHT22;51601;51.356;12.458;2023-07-20T22:27:49;17.10;69.90
65034;DHT22;51601;51.356;12.458;2023-07-20T22:32:08;17.00;70.40
65034;DHT22;51601;51.356;12.458;2023-07-20T22:36:25;16.90;70.90
65034;DHT22;51601;51.356;12.458;2023-07-20T22:40:45;16.80;71.30
65034;DHT22;51601;51.356;12.458;2023-07-20T22:45:05;16.70;71.30
65034;DHT22;51601;51.356;12.458;2023-07-20T22:49:26;16.60;71.60
65034;DHT22;51601;51.356;12.458;2023-07-20T22:53:47;16.60;72.00
65034;DHT22;51601;51.356;12.458;2023-07-20T22:58:06;16.50;72.20
65034;DHT22;51601;51.356;12.458;2023-07-20T23:02:26;16.50;72.30
65034;DHT22;51601;51.356;12.458;2023-07-20T23:06:44;16.60;72.40
65034;DHT22;51601;51.356;12.458;2023-07-20T23:11:02;16.60;72.40
65034;DHT22;51601;51.356;12.458;2023-07-20T23:15:22;16.60;72.30
65034;DHT22;51601;51.356;12.458;2023-07-20T23:19:38;16.60;72.10
65034;DHT22;51601;51.356;12.458;2023-07-20T23:23:56;16.60;72.10
65034;DHT22;51601;51.356;12.458;2023-07-20T23:28:14;16.60;71.90
65034;DHT22;51601;51.356;12.458;2023-07-20T23:32:34;16.60;71.50
65034;DHT22;51601;51.356;12.458;2023-07-20T23:36:50;16.60;71.30
65034;DHT22;51601;51.356;12.458;2023-07-20T23:41:08;16.60;70.80
65034;DHT22;51601;51.356;12.458;2023-07-20T23:45:27;16.50;70.50
65034;DHT22;51601;51.356;12.458;2023-07-20T23:49:49;16.50;70.30
65034;DHT22;51601;51.356;12.458;2023-07-20T23:54:06;16.40;69.90
65034;DHT22;51601;51.356;12.458;2023-07-20T23:58:24;16.40;69.90
